createdAt,value
2019-01-09T00:01:22.265Z,7.30
2019-01-09T00:06:30.017Z,10.53
2019-01-09T00:11:35.863Z,12.60
2019-01-09T00:16:42.189Z,12.20
2019-01-09T00:21:48.970Z,9.97
2019-01-09T00:26:55.611Z,9.10
2019-01-09T00:32:01.566Z,9.07
2019-01-09T00:37:10.349Z,6.23
2019-01-09T00:42:17.196Z,9.63
2019-01-09T00:47:24.629Z,6.80
2019-01-09T00:52:31.515Z,9.77
2019-01-09T00:57:38.049Z,8.20
2019-01-09T01:03:34.043Z,7.17
2019-01-09T01:09:21.460Z,9.17
2019-01-09T01:14:52.409Z,10.03
2019-01-09T01:20:29.364Z,9.07
2019-01-09T01:26:01.459Z,11.00
2019-01-09T01:31:30.157Z,14.20
2019-01-09T01:37:26.972Z,12.20
2019-01-09T01:43:05.368Z,9.57
2019-01-09T01:48:48.011Z,7.53
2019-01-09T01:54:37.913Z,6.20
2019-01-09T02:00:29.536Z,9.30
2019-01-09T02:06:03.645Z,10.07
2019-01-09T02:11:32.680Z,7.23
2019-01-09T02:17:04.225Z,7.20
2019-01-09T02:22:46.103Z,5.80
2019-01-09T02:28:28.439Z,4.07
2019-01-09T02:33:35.345Z,5.27
2019-01-09T02:38:40.754Z,5.13
2019-01-09T02:43:46.205Z,7.43
2019-01-09T02:48:53.326Z,4.80
2019-01-09T02:54:00.728Z,9.73
2019-01-09T02:59:07.145Z,11.30
2019-01-09T03:04:13.183Z,9.73
2019-01-09T03:09:19.075Z,6.80
2019-01-09T03:14:25.394Z,11.80
2019-01-09T03:19:31.795Z,12.80
2019-01-09T03:24:38.537Z,10.73
2019-01-09T03:29:45.005Z,8.63
2019-01-09T03:34:50.331Z,11.97
2019-01-09T03:39:56.648Z,7.47
2019-01-09T03:45:03.484Z,10.87
2019-01-09T03:50:10.766Z,13.47
2019-01-09T03:55:16.469Z,13.57
2019-01-09T04:00:22.648Z,9.83
2019-01-09T04:05:28.701Z,9.27
2019-01-09T04:10:36.046Z,8.53
2019-01-09T04:15:42.591Z,8.63
2019-01-09T04:20:49.864Z,14.37
2019-01-09T04:25:56.227Z,11.57
2019-01-09T04:31:04.733Z,12.27
2019-01-09T04:36:13.066Z,7.60
2019-01-09T04:41:20.616Z,12.57
2019-01-09T04:46:26.540Z,10.47
2019-01-09T04:51:33.782Z,8.33
2019-01-09T04:56:38.951Z,4.90
2019-01-09T05:01:46.447Z,7.30
2019-01-09T05:07:00.294Z,5.43
2019-01-09T05:12:00.877Z,5.00
2019-01-09T05:17:06.789Z,3.90
2019-01-09T05:22:12.564Z,3.67
2019-01-09T05:27:19.509Z,5.43
2019-01-09T05:32:25.311Z,6.33
2019-01-09T05:37:32.131Z,6.37
2019-01-09T05:42:41.232Z,4.40
2019-01-09T05:47:47.126Z,7.20
2019-01-09T05:52:54.397Z,4.50
2019-01-09T05:58:00.217Z,6.83
2019-01-09T06:03:05.317Z,8.37
2019-01-09T06:08:12.183Z,7.97
2019-01-09T06:13:19.692Z,8.57
2019-01-09T06:18:25.892Z,13.63
2019-01-09T06:23:32.379Z,7.23
2019-01-09T06:28:39.305Z,9.20
2019-01-09T06:33:44.931Z,7.00
2019-01-09T06:38:52.044Z,13.63
2019-01-09T06:43:57.894Z,13.43
2019-01-09T06:49:04.301Z,9.93
2019-01-09T06:54:10.022Z,13.77
2019-01-09T06:59:16.582Z,15.17
2019-01-09T07:04:22.395Z,17.77
2019-01-09T07:09:29.301Z,16.20
2019-01-09T07:14:36.549Z,14.60
2019-01-09T07:19:42.911Z,16.20
2019-01-09T07:24:49.330Z,13.73
2019-01-09T07:29:55.225Z,12.97
2019-01-09T07:35:03.396Z,13.63
2019-01-09T07:40:09.330Z,14.03
2019-01-09T07:45:15.413Z,16.50
2019-01-09T07:50:21.436Z,19.63
2019-01-09T07:55:28.286Z,15.37
2019-01-09T08:00:33.225Z,14.27
2019-01-09T08:05:46.352Z,13.73
2019-01-09T08:10:53.332Z,9.00
2019-01-09T08:15:59.995Z,16.40
2019-01-09T08:21:06.950Z,10.80
2019-01-09T08:26:14.885Z,18.73
2019-01-09T08:31:20.777Z,14.67
2019-01-09T08:36:26.679Z,11.50
2019-01-09T08:41:33.069Z,11.10
2019-01-09T08:46:42.560Z,12.70
2019-01-09T08:51:50.105Z,11.97
2019-01-09T08:56:55.184Z,10.30
2019-01-09T09:02:02.568Z,9.93
2019-01-09T09:07:10.139Z,19.07
2019-01-09T09:12:16.762Z,21.20
2019-01-09T09:17:23.119Z,11.80
2019-01-09T09:22:30.183Z,15.17
2019-01-09T09:27:37.050Z,10.00
2019-01-09T09:32:47.280Z,13.60
2019-01-09T09:37:52.424Z,10.17
2019-01-09T09:42:59.411Z,14.93
2019-01-09T09:48:05.640Z,10.83
2019-01-09T09:53:11.105Z,13.37
2019-01-09T09:58:15.908Z,15.57
2019-01-09T10:03:22.058Z,10.37
2019-01-09T10:08:29.563Z,13.70
2019-01-09T10:13:35.531Z,13.93
2019-01-09T10:18:42.629Z,14.23
2019-01-09T10:23:49.454Z,13.90
2019-01-09T10:28:59.490Z,12.90
2019-01-09T10:34:06.162Z,9.63
2019-01-09T10:39:11.919Z,15.03
2019-01-09T10:44:20.553Z,11.07
2019-01-09T10:49:27.054Z,13.47
2019-01-09T10:54:35.304Z,7.97
2019-01-09T10:59:42.845Z,10.67
2019-01-09T11:04:49.536Z,8.33
2019-01-09T11:09:55.900Z,9.00
2019-01-09T11:15:01.791Z,14.23
2019-01-09T11:20:11.492Z,8.07
2019-01-09T11:25:22.532Z,9.83
2019-01-09T11:30:28.032Z,5.43
2019-01-09T11:35:34.809Z,10.03
2019-01-09T11:40:41.733Z,8.70
2019-01-09T11:45:49.254Z,12.30
2019-01-09T11:50:56.812Z,9.70
2019-01-09T11:56:03.306Z,8.00
2019-01-09T12:01:10.910Z,6.63
2019-01-09T12:06:18.193Z,7.23
2019-01-09T12:11:25.143Z,8.53
2019-01-09T12:16:31.856Z,8.70
2019-01-09T12:21:37.884Z,5.87
2019-01-09T12:26:46.645Z,10.37
2019-01-09T12:31:52.420Z,7.27
2019-01-09T12:36:58.514Z,5.87
2019-01-09T12:42:04.945Z,8.70
2019-01-09T12:47:11.038Z,8.50
2019-01-09T12:52:17.456Z,7.50
2019-01-09T12:57:23.680Z,10.27
2019-01-09T13:02:29.437Z,6.77
2019-01-09T13:07:35.248Z,5.17
2019-01-09T13:13:02.095Z,5.10
2019-01-09T13:18:35.983Z,6.50
2019-01-09T13:23:45.133Z,7.20
2019-01-09T13:28:51.704Z,6.53
2019-01-09T13:33:59.267Z,7.80
2019-01-09T13:39:08.176Z,8.53
2019-01-09T13:44:13.628Z,7.93
2019-01-09T13:49:22.185Z,4.83
2019-01-09T13:54:31.224Z,5.90
2019-01-09T13:59:37.454Z,6.00
2019-01-09T14:04:43.555Z,7.40
2019-01-09T14:09:49.693Z,9.87
2019-01-09T14:14:55.858Z,7.13
2019-01-09T14:20:02.833Z,7.00
2019-01-09T14:25:10.875Z,6.73
2019-01-09T14:30:28.245Z,6.63
2019-01-09T14:35:36.216Z,6.67
2019-01-09T14:40:44.277Z,7.13
2019-01-09T14:45:51.044Z,5.73
2019-01-09T14:50:57.780Z,8.63
2019-01-09T14:56:04.205Z,7.67
2019-01-09T15:01:17.981Z,8.97
2019-01-09T15:06:23.718Z,5.70
2019-01-09T15:11:32.718Z,7.13
2019-01-09T15:16:39.025Z,6.23
2019-01-09T15:21:45.773Z,8.97
2019-01-09T15:26:52.182Z,9.53
2019-01-09T15:31:58.019Z,6.97
2019-01-09T15:37:04.045Z,9.20
2019-01-09T15:42:13.078Z,8.20
2019-01-09T15:47:22.335Z,7.80
2019-01-09T15:52:27.724Z,6.50
2019-01-09T15:57:35.514Z,6.87
2019-01-09T16:02:40.347Z,8.00
2019-01-09T16:07:46.691Z,8.50
2019-01-09T16:12:55.207Z,7.17
2019-01-09T16:18:04.109Z,8.33
2019-01-09T16:23:10.923Z,8.67
2019-01-09T16:28:18.182Z,7.77
2019-01-09T16:33:24.092Z,12.07
2019-01-09T16:38:31.246Z,7.30
2019-01-09T16:43:37.495Z,9.53
2019-01-09T16:48:45.453Z,7.20
2019-01-09T16:53:51.378Z,10.70
2019-01-09T16:58:57.407Z,10.30
2019-01-09T17:04:02.941Z,9.03
2019-01-09T17:09:09.893Z,10.43
2019-01-09T17:14:17.521Z,7.37
2019-01-09T17:19:23.769Z,7.77
2019-01-09T17:24:30.262Z,7.07
2019-01-09T17:29:36.909Z,9.50
2019-01-09T17:34:44.387Z,6.57
2019-01-09T17:39:52.754Z,6.60
2019-01-09T17:44:59.250Z,7.77
2019-01-09T17:50:07.668Z,5.50
2019-01-09T17:55:15.596Z,10.53
2019-01-09T18:00:24.052Z,9.07
2019-01-09T18:05:31.942Z,7.80
2019-01-09T18:10:39.245Z,9.50
2019-01-09T18:15:45.508Z,6.90
2019-01-09T18:20:53.259Z,4.97
2019-01-09T18:25:59.725Z,6.80
2019-01-09T18:31:53.916Z,9.43
2019-01-09T18:37:40.018Z,12.07
2019-01-09T18:43:03.438Z,11.47
2019-01-09T18:49:04.942Z,6.90
2019-01-09T18:54:11.589Z,5.80
2019-01-09T18:59:17.557Z,5.73
2019-01-09T19:04:23.909Z,6.80
2019-01-09T19:09:30.552Z,7.77
2019-01-09T19:14:36.340Z,8.93
2019-01-09T19:19:43.367Z,6.30
2019-01-09T19:24:56.319Z,6.67
2019-01-09T19:30:01.642Z,5.33
2019-01-09T19:35:09.942Z,10.37
2019-01-09T19:40:15.736Z,6.97
2019-01-09T19:45:22.033Z,9.63
2019-01-09T19:50:27.165Z,9.90
2019-01-09T19:55:33.585Z,4.03
2019-01-09T20:00:40.611Z,9.13
2019-01-09T20:05:45.849Z,8.07
2019-01-09T20:10:52.144Z,7.40
2019-01-09T20:15:58.924Z,7.57
2019-01-09T20:21:04.476Z,11.53
2019-01-09T20:26:12.483Z,7.40
2019-01-09T20:31:41.717Z,8.57
2019-01-09T20:36:48.413Z,7.23
2019-01-09T20:41:54.980Z,7.37
2019-01-09T20:47:01.275Z,11.00
2019-01-09T20:52:07.299Z,5.93
2019-01-09T20:57:14.342Z,8.57
2019-01-09T21:02:21.680Z,8.10
2019-01-09T21:07:28.327Z,7.83
2019-01-09T21:12:42.132Z,10.93
2019-01-09T21:17:47.780Z,6.90
2019-01-09T21:22:53.502Z,7.50
2019-01-09T21:28:00.580Z,8.03
2019-01-09T21:33:09.636Z,9.53
2019-01-09T21:38:18.160Z,9.33
2019-01-09T21:43:24.873Z,7.33
2019-01-09T21:48:30.582Z,7.17
2019-01-09T21:53:41.746Z,6.73
2019-01-09T21:58:48.142Z,6.37
2019-01-09T22:03:55.229Z,8.47
2019-01-09T22:09:01.353Z,7.20
2019-01-09T22:14:07.240Z,9.13
2019-01-09T22:19:12.901Z,7.63
2019-01-09T22:24:20.122Z,12.90
2019-01-09T22:29:30.079Z,8.80
2019-01-09T22:34:35.512Z,6.57
2019-01-09T22:39:42.082Z,6.20
2019-01-09T22:44:49.435Z,6.83
2019-01-09T22:49:55.517Z,7.17
2019-01-09T22:55:01.483Z,10.13
2019-01-09T23:00:22.012Z,9.37
2019-01-09T23:05:27.811Z,6.70
2019-01-09T23:10:34.568Z,7.40
2019-01-09T23:15:41.357Z,7.60
2019-01-09T23:20:47.305Z,8.63
2019-01-09T23:25:54.752Z,5.57
2019-01-09T23:31:03.934Z,5.83
2019-01-09T23:36:10.507Z,5.13
2019-01-09T23:41:16.870Z,7.47
2019-01-09T23:46:24.337Z,4.07
2019-01-09T23:51:29.688Z,4.77
2019-01-09T23:56:36.662Z,5.77
